createdAt,value
2022-09-24T00:01:35.310Z,5.03
2022-09-24T00:04:40.845Z,6.03
2022-09-24T00:07:47.458Z,6.22
2022-09-24T00:10:55.768Z,4.90
2022-09-24T00:14:04.282Z,4.85
2022-09-24T00:17:11.946Z,3.37
2022-09-24T00:20:17.014Z,5.03
2022-09-24T00:23:23.077Z,4.90
2022-09-24T00:26:35.769Z,5.00
2022-09-24T00:29:42.972Z,5.55
2022-09-24T00:32:48.728Z,4.83
2022-09-24T00:35:53.631Z,6.17
2022-09-24T00:39:01.973Z,5.72
2022-09-24T00:42:07.453Z,5.47
2022-09-24T00:45:13.012Z,5.37
2022-09-24T00:48:18.346Z,5.20
2022-09-24T00:51:23.279Z,5.47
2022-09-24T00:54:29.170Z,5.03
2022-09-24T00:57:35.398Z,6.40
2022-09-24T01:00:40.414Z,6.45
2022-09-24T01:03:47.703Z,6.53
2022-09-24T01:06:53.929Z,5.08
2022-09-24T01:09:53.500Z,6.00
2022-09-24T01:13:08.215Z,5.65
2022-09-24T01:16:20.495Z,5.10
2022-09-24T01:19:59.205Z,5.45
2022-09-24T01:23:48.610Z,5.30
2022-09-24T01:27:08.524Z,6.28
2022-09-24T01:30:22.913Z,5.47
2022-09-24T01:33:32.607Z,5.75
2022-09-24T01:36:38.184Z,5.40
2022-09-24T01:39:44.024Z,6.53
2022-09-24T01:42:49.124Z,5.30
2022-09-24T01:45:55.190Z,5.47
2022-09-24T01:49:01.091Z,5.03
2022-09-24T01:52:09.544Z,5.67
2022-09-24T01:55:15.908Z,5.58
2022-09-24T01:58:26.138Z,4.72
2022-09-24T02:04:37.682Z,3.87
2022-09-24T02:07:51.026Z,5.15
2022-09-24T02:11:07.571Z,5.70
2022-09-24T02:14:27.216Z,6.15
2022-09-24T02:17:32.840Z,6.20
2022-09-24T02:20:40.207Z,4.97
2022-09-24T02:23:46.765Z,5.53
2022-09-24T02:26:53.556Z,5.53
2022-09-24T02:30:00.295Z,5.45
2022-09-24T02:33:06.982Z,5.20
2022-09-24T02:36:12.555Z,6.03
2022-09-24T02:39:18.165Z,5.78
2022-09-24T02:42:24.433Z,6.05
2022-09-24T02:45:31.184Z,5.45
2022-09-24T02:48:36.327Z,5.95
2022-09-24T02:51:42.140Z,5.45
2022-09-24T02:54:48.111Z,5.95
2022-09-24T02:57:54.580Z,6.58
2022-09-24T03:01:02.462Z,6.90
2022-09-24T03:04:09.094Z,6.58
2022-09-24T03:07:06.869Z,6.67
2022-09-24T03:10:01.507Z,6.33
2022-09-24T03:13:07.392Z,6.53
2022-09-24T03:16:13.403Z,5.28
2022-09-24T03:19:12.771Z,5.45
2022-09-24T03:22:18.528Z,6.28
2022-09-24T03:25:24.458Z,6.28
2022-09-24T03:28:29.137Z,5.53
2022-09-24T03:31:35.702Z,6.17
2022-09-24T03:34:42.176Z,6.72
2022-09-24T03:37:49.701Z,5.90
2022-09-24T03:40:54.918Z,7.15
2022-09-24T03:44:01.361Z,7.50
2022-09-24T03:47:08.965Z,7.25
2022-09-24T03:50:16.399Z,5.80
2022-09-24T03:53:22.611Z,6.42
2022-09-24T03:56:27.215Z,6.80
2022-09-24T03:59:33.410Z,7.55
2022-09-24T04:02:39.519Z,6.58
2022-09-24T04:05:45.414Z,6.35
2022-09-24T04:08:51.008Z,6.05
2022-09-24T04:11:58.747Z,6.37
2022-09-24T04:15:04.552Z,7.15
2022-09-24T04:18:12.091Z,7.10
2022-09-24T04:21:17.915Z,6.87
2022-09-24T04:24:24.170Z,5.67
2022-09-24T04:27:31.081Z,5.12
2022-09-24T04:30:37.199Z,5.80
2022-09-24T04:33:43.115Z,5.87
2022-09-24T04:36:49.643Z,6.37
2022-09-24T04:39:55.638Z,5.85
2022-09-24T04:43:01.670Z,6.25
2022-09-24T04:46:11.741Z,6.87
2022-09-24T04:49:17.198Z,5.65
2022-09-24T04:52:23.729Z,6.25
2022-09-24T04:55:29.261Z,7.00
2022-09-24T04:58:35.145Z,5.60
2022-09-24T05:01:40.579Z,6.60
2022-09-24T05:04:47.122Z,6.28
2022-09-24T05:07:53.193Z,6.47
2022-09-24T05:11:01.303Z,6.10
2022-09-24T05:14:08.029Z,5.78
2022-09-24T05:19:48.812Z,6.65
2022-09-24T05:22:59.611Z,6.47
2022-09-24T05:29:28.056Z,6.08
2022-09-24T05:32:34.869Z,6.95
2022-09-24T05:35:40.241Z,6.85
2022-09-24T05:38:45.625Z,5.72
2022-09-24T05:41:51.671Z,5.92
2022-09-24T05:44:57.627Z,6.42
2022-09-24T05:48:03.059Z,6.40
2022-09-24T05:51:08.597Z,5.90
2022-09-24T05:54:14.881Z,5.80
2022-09-24T05:57:21.670Z,5.33
2022-09-24T06:00:27.955Z,5.47
2022-09-24T06:03:36.679Z,5.10
2022-09-24T06:06:42.279Z,4.00
2022-09-24T06:09:48.630Z,4.40
2022-09-24T06:12:57.186Z,3.37
2022-09-24T06:16:03.199Z,3.30
2022-09-24T06:19:08.323Z,3.98
2022-09-24T06:22:13.691Z,4.47
2022-09-24T06:25:22.361Z,4.45
2022-09-24T06:28:27.678Z,3.95
2022-09-24T06:31:33.524Z,5.42
2022-09-24T06:34:38.895Z,5.30
2022-09-24T06:37:38.384Z,4.95
2022-09-24T06:40:44.003Z,4.50
2022-09-24T06:43:50.669Z,5.33
2022-09-24T06:46:57.359Z,6.85
2022-09-24T06:50:03.912Z,6.92
2022-09-24T06:53:09.815Z,6.47
2022-09-24T06:56:15.441Z,6.15
2022-09-24T06:59:20.938Z,5.03
2022-09-24T07:02:26.635Z,5.10
2022-09-24T07:05:32.598Z,6.42
2022-09-24T07:08:38.616Z,6.72
2022-09-24T07:11:44.564Z,4.62
2022-09-24T07:14:49.634Z,5.25
2022-09-24T07:17:55.765Z,4.83
2022-09-24T07:21:05.916Z,5.25
2022-09-24T07:24:12.080Z,5.15
2022-09-24T07:27:21.363Z,4.83
2022-09-24T07:30:27.016Z,4.70
2022-09-24T07:33:33.656Z,4.62
2022-09-24T07:36:41.323Z,4.08
2022-09-24T07:39:47.034Z,3.58
2022-09-24T07:42:55.329Z,3.80
2022-09-24T07:46:02.551Z,4.00
2022-09-24T07:49:08.969Z,3.65
2022-09-24T07:52:14.622Z,4.22
2022-09-24T07:55:20.693Z,3.83
2022-09-24T07:58:29.066Z,3.85
2022-09-24T08:01:34.137Z,3.33
2022-09-24T08:04:39.552Z,3.08
2022-09-24T08:07:46.127Z,3.33
2022-09-24T08:10:52.768Z,3.40
2022-09-24T08:13:59.639Z,3.30
2022-09-24T08:17:05.642Z,3.30
2022-09-24T08:20:12.149Z,2.77
2022-09-24T08:23:22.822Z,3.27
2022-09-24T08:26:29.622Z,3.00
2022-09-24T08:29:35.219Z,2.67
2022-09-24T08:32:39.905Z,2.67
2022-09-24T08:35:47.732Z,2.83
2022-09-24T08:38:52.668Z,2.77
2022-09-24T08:42:14.563Z,3.17
2022-09-24T08:45:39.666Z,3.00
2022-09-24T08:48:47.053Z,2.87
2022-09-24T08:52:01.224Z,3.27
2022-09-24T08:55:08.991Z,2.80
2022-09-24T08:58:22.104Z,3.50
2022-09-24T09:01:28.719Z,2.87
2022-09-24T09:04:38.828Z,3.02
2022-09-24T09:07:58.353Z,3.55
2022-09-24T09:11:09.116Z,3.62
2022-09-24T09:14:28.050Z,4.42
2022-09-24T09:17:57.189Z,3.50
2022-09-24T09:21:04.506Z,3.12
2022-09-24T09:24:11.633Z,3.67
2022-09-24T09:27:16.964Z,3.35
2022-09-24T09:30:26.651Z,3.45
2022-09-24T09:33:52.021Z,3.50
2022-09-24T09:37:35.688Z,3.10
2022-09-24T09:40:58.588Z,2.77
2022-09-24T09:44:04.874Z,3.10
2022-09-24T09:47:36.537Z,3.55
2022-09-24T09:50:56.710Z,3.52
2022-09-24T09:54:16.503Z,3.05
2022-09-24T09:57:25.479Z,3.10
2022-09-24T10:00:48.599Z,4.22
2022-09-24T10:04:03.431Z,2.95
2022-09-24T10:07:27.691Z,3.25
2022-09-24T10:10:35.295Z,3.05
2022-09-24T10:13:41.934Z,3.15
2022-09-24T10:16:58.574Z,3.52
2022-09-24T10:20:04.353Z,3.85
2022-09-24T10:23:22.006Z,3.27
2022-09-24T10:26:27.895Z,3.50
2022-09-24T10:30:01.218Z,3.30
2022-09-24T10:33:15.717Z,2.98
2022-09-24T10:36:24.584Z,2.75
2022-09-24T10:39:31.279Z,2.02
2022-09-24T10:42:45.149Z,2.20
2022-09-24T10:46:24.380Z,2.25
2022-09-24T10:49:53.458Z,2.02
2022-09-24T10:53:08.061Z,2.10
2022-09-24T10:56:46.540Z,3.02
2022-09-24T10:59:58.513Z,2.00
2022-09-24T11:03:24.768Z,1.90
2022-09-24T11:06:51.421Z,1.82
2022-09-24T11:10:20.157Z,2.20
2022-09-24T11:13:37.136Z,1.90
2022-09-24T11:16:58.999Z,2.22
2022-09-24T11:20:22.414Z,2.00
2022-09-24T11:23:51.109Z,2.30
2022-09-24T11:27:23.250Z,2.25
2022-09-24T11:30:36.631Z,2.58
2022-09-24T11:34:06.166Z,2.58
2022-09-24T11:37:44.887Z,3.10
2022-09-24T11:41:20.746Z,2.10
2022-09-24T11:44:58.885Z,2.37
2022-09-24T11:48:10.447Z,2.33
2022-09-24T11:51:25.355Z,2.20
2022-09-24T11:54:41.816Z,2.08
2022-09-24T11:58:00.246Z,1.72
2022-09-24T12:01:22.390Z,1.25
2022-09-24T12:04:32.873Z,1.27
2022-09-24T12:07:47.227Z,1.30
2022-09-24T12:10:58.210Z,1.12
2022-09-24T12:14:29.224Z,0.80
2022-09-24T12:17:51.716Z,1.15
2022-09-24T12:21:13.655Z,0.90
2022-09-24T12:24:30.152Z,1.10
2022-09-24T12:27:42.132Z,1.35
2022-09-24T12:31:15.155Z,1.00
2022-09-24T12:34:44.373Z,0.90
2022-09-24T12:37:54.766Z,1.00
2022-09-24T12:41:13.814Z,0.93
2022-09-24T12:44:31.547Z,0.90
2022-09-24T12:47:47.332Z,0.85
2022-09-24T12:50:54.104Z,1.15
2022-09-24T12:54:02.097Z,1.20
2022-09-24T12:57:02.221Z,1.40
2022-09-24T13:00:12.720Z,1.17
2022-09-24T13:03:19.294Z,1.98
2022-09-24T13:06:51.810Z,1.22
2022-09-24T13:09:57.112Z,0.80
2022-09-24T13:13:04.922Z,0.90
2022-09-24T13:16:18.977Z,1.10
2022-09-24T13:19:48.684Z,1.17
2022-09-24T13:22:55.129Z,1.07
2022-09-24T13:26:18.198Z,0.85
2022-09-24T13:29:38.980Z,0.62
2022-09-24T13:32:48.482Z,0.70
2022-09-24T13:36:12.871Z,0.78
2022-09-24T13:39:32.412Z,0.70
2022-09-24T13:42:54.835Z,0.78
2022-09-24T13:46:00.674Z,0.85
2022-09-24T13:49:13.372Z,0.93
2022-09-24T13:52:45.993Z,0.75
2022-09-24T13:55:56.643Z,0.80
2022-09-24T13:59:02.515Z,1.02
2022-09-24T14:02:09.028Z,0.90
2022-09-24T14:05:16.704Z,1.10
2022-09-24T14:08:25.797Z,1.30
2022-09-24T14:11:36.881Z,0.98
2022-09-24T14:14:49.281Z,1.00
2022-09-24T14:17:54.772Z,1.45
2022-09-24T14:21:00.259Z,1.60
2022-09-24T14:24:10.483Z,1.50
2022-09-24T14:27:26.464Z,1.42
2022-09-24T14:30:40.310Z,1.40
2022-09-24T14:33:47.234Z,1.17
2022-09-24T14:36:53.219Z,1.30
2022-09-24T14:40:02.692Z,1.27
2022-09-24T14:43:13.378Z,1.20
2022-09-24T14:49:40.414Z,1.25
2022-09-24T14:52:50.352Z,1.25
2022-09-24T14:55:57.055Z,1.27
2022-09-24T14:59:03.709Z,1.50
2022-09-24T15:02:41.662Z,1.40
2022-09-24T15:05:47.207Z,1.35
2022-09-24T15:08:54.368Z,1.45
2022-09-24T15:12:01.775Z,1.20
2022-09-24T15:15:10.453Z,1.42
2022-09-24T15:18:17.392Z,1.50
2022-09-24T15:21:23.817Z,1.27
2022-09-24T15:24:31.724Z,1.60
2022-09-24T15:27:41.488Z,1.70
2022-09-24T15:30:47.163Z,1.70
2022-09-24T15:33:54.632Z,1.75
2022-09-24T15:37:02.230Z,1.50
2022-09-24T15:40:13.736Z,1.57
2022-09-24T15:43:18.594Z,1.50
2022-09-24T15:46:24.700Z,1.80
2022-09-24T15:49:30.138Z,1.50
2022-09-24T15:52:42.986Z,1.90
2022-09-24T15:55:50.845Z,2.47
2022-09-24T15:58:57.508Z,2.10
2022-09-24T16:02:06.254Z,2.20
2022-09-24T16:05:11.236Z,2.45
2022-09-24T16:08:17.048Z,2.70
2022-09-24T16:11:23.738Z,2.40
2022-09-24T16:14:29.495Z,2.95
2022-09-24T16:17:36.268Z,1.87
2022-09-24T16:20:42.764Z,1.90
2022-09-24T16:23:48.726Z,2.30
2022-09-24T16:26:55.123Z,2.22
2022-09-24T16:30:01.161Z,2.77
2022-09-24T16:33:07.897Z,2.60
2022-09-24T16:36:24.519Z,2.75
2022-09-24T16:39:23.049Z,2.75
2022-09-24T16:42:31.499Z,2.15
2022-09-24T16:45:37.566Z,3.17
2022-09-24T16:48:42.565Z,2.92
2022-09-24T16:51:48.061Z,3.10
2022-09-24T16:54:54.294Z,2.67
2022-09-24T16:57:59.960Z,3.22
2022-09-24T17:01:06.746Z,2.30
2022-09-24T17:04:14.474Z,2.95
2022-09-24T17:07:21.412Z,2.98
2022-09-24T17:10:28.151Z,2.90
2022-09-24T17:13:33.982Z,2.67
2022-09-24T17:16:40.684Z,3.20
2022-09-24T17:19:47.037Z,2.60
2022-09-24T17:22:56.210Z,3.08
2022-09-24T17:26:03.348Z,2.52
2022-09-24T17:29:08.758Z,2.58
2022-09-24T17:32:15.054Z,2.27
2022-09-24T17:35:21.285Z,2.85
2022-09-24T17:38:26.762Z,2.50
2022-09-24T17:41:31.950Z,2.15
2022-09-24T17:44:38.608Z,2.30
2022-09-24T17:47:38.510Z,1.90
2022-09-24T17:50:31.605Z,2.25
2022-09-24T17:53:38.183Z,2.47
2022-09-24T17:56:47.565Z,2.22
2022-09-24T17:59:55.483Z,2.08
2022-09-24T18:03:02.958Z,2.30
2022-09-24T18:06:18.589Z,2.42
2022-09-24T18:09:23.904Z,1.80
2022-09-24T18:12:30.412Z,2.67
2022-09-24T18:15:37.504Z,2.10
2022-09-24T18:18:42.934Z,2.40
2022-09-24T18:21:48.307Z,2.42
2022-09-24T18:24:54.098Z,2.12
2022-09-24T18:27:59.086Z,1.85
2022-09-24T18:31:06.838Z,2.02
2022-09-24T18:34:15.171Z,2.10
2022-09-24T18:37:21.118Z,2.10
2022-09-24T18:40:27.566Z,1.65
2022-09-24T18:43:33.389Z,1.75
2022-09-24T18:46:41.038Z,1.95
2022-09-24T18:49:46.580Z,2.00
2022-09-24T18:52:52.356Z,1.98
2022-09-24T18:55:58.080Z,1.87
2022-09-24T18:59:09.399Z,1.40
2022-09-24T19:02:13.438Z,1.52
2022-09-24T19:05:21.925Z,1.60
2022-09-24T19:08:27.684Z,1.52
2022-09-24T19:11:34.718Z,1.72
2022-09-24T19:14:40.338Z,1.30
2022-09-24T19:17:46.904Z,1.32
2022-09-24T19:20:56.495Z,1.65
2022-09-24T19:24:04.115Z,1.87
2022-09-24T19:27:10.986Z,1.75
2022-09-24T19:30:17.722Z,2.00
2022-09-24T19:33:23.758Z,1.62
2022-09-24T19:36:29.467Z,1.72
2022-09-24T19:39:35.838Z,2.12
2022-09-24T19:42:41.548Z,2.50
2022-09-24T19:45:47.151Z,2.90
2022-09-24T19:48:54.966Z,2.92
2022-09-24T19:52:01.040Z,3.02
2022-09-24T19:55:06.479Z,3.27
2022-09-24T19:58:12.561Z,3.90
2022-09-24T20:01:19.464Z,4.47
2022-09-24T20:04:26.940Z,3.62
2022-09-24T20:07:32.365Z,3.75
2022-09-24T20:10:38.031Z,4.97
2022-09-24T20:13:44.970Z,4.03
2022-09-24T20:16:51.955Z,3.83
2022-09-24T20:19:57.574Z,3.67
2022-09-24T20:23:02.652Z,4.40
2022-09-24T20:26:25.908Z,3.75
2022-09-24T20:29:32.349Z,4.05
2022-09-24T20:32:38.675Z,3.98
2022-09-24T20:35:44.713Z,3.98
2022-09-24T20:38:49.760Z,3.98
2022-09-24T20:41:56.875Z,3.90
2022-09-24T20:45:06.114Z,3.33
2022-09-24T20:48:10.103Z,4.00
2022-09-24T20:51:15.837Z,3.60
2022-09-24T20:54:22.056Z,3.75
2022-09-24T20:57:28.011Z,3.37
2022-09-24T21:00:34.971Z,3.67
2022-09-24T21:03:44.793Z,3.77
2022-09-24T21:06:51.864Z,3.95
2022-09-24T21:09:57.141Z,3.58
2022-09-24T21:13:03.563Z,3.33
2022-09-24T21:16:13.464Z,4.47
2022-09-24T21:22:24.581Z,3.47
2022-09-24T21:25:52.831Z,3.58
2022-09-24T21:28:37.004Z,3.98
2022-09-24T21:31:44.254Z,3.75
2022-09-24T21:34:50.444Z,3.50
2022-09-24T21:37:55.614Z,3.92
2022-09-24T21:41:09.095Z,4.12
2022-09-24T21:44:15.043Z,3.95
2022-09-24T21:47:22.051Z,3.75
2022-09-24T21:50:28.159Z,3.08
2022-09-24T21:53:33.848Z,3.87
2022-09-24T21:56:39.020Z,4.37
2022-09-24T22:00:02.433Z,4.25
2022-09-24T22:03:08.813Z,3.52
2022-09-24T22:06:17.309Z,4.10
2022-09-24T22:09:23.412Z,3.85
2022-09-24T22:12:29.517Z,4.20
2022-09-24T22:15:34.951Z,4.12
2022-09-24T22:18:42.586Z,3.17
2022-09-24T22:21:48.164Z,3.05
2022-09-24T22:24:54.432Z,3.02
2022-09-24T22:28:01.203Z,3.87
2022-09-24T22:31:08.983Z,3.75
2022-09-24T22:34:33.329Z,3.60
2022-09-24T22:37:39.449Z,3.80
2022-09-24T22:40:45.637Z,3.87
2022-09-24T22:43:51.291Z,3.08
2022-09-24T22:46:51.983Z,3.15
2022-09-24T22:49:38.427Z,3.65
2022-09-24T22:52:30.798Z,3.55
2022-09-24T22:55:36.411Z,3.52
2022-09-24T22:58:42.415Z,3.87
2022-09-24T23:01:51.573Z,3.60
2022-09-24T23:04:58.058Z,3.08
2022-09-24T23:08:04.633Z,3.52
2022-09-24T23:11:10.899Z,3.75
2022-09-24T23:14:20.073Z,3.55
2022-09-24T23:17:25.971Z,3.87
2022-09-24T23:20:32.233Z,3.37
2022-09-24T23:23:39.165Z,2.80
2022-09-24T23:26:45.731Z,3.87
2022-09-24T23:29:53.006Z,4.12
2022-09-24T23:32:59.125Z,3.98
2022-09-24T23:36:11.641Z,3.98
2022-09-24T23:39:16.963Z,3.77
2022-09-24T23:42:23.687Z,3.33
2022-09-24T23:45:30.072Z,3.85
2022-09-24T23:48:36.788Z,3.83
2022-09-24T23:51:42.722Z,4.03
2022-09-24T23:54:47.891Z,3.77
2022-09-24T23:57:57.413Z,3.55
